Time;durP1;ratioP1;P1;durP2;ratioP2;P2;SDS_P1;SDS_P2;PMS_P1;PMS_P2;Temp;Humidity;BMP_temperature;BMP_pressure;BME280_temperature;BME280_humidity;BME280_pressure;Samples;Min_cycle;Max_cycle;Signal;HPM_P1;HPM_P2
2022/09/16 00:00:44;;;;;;;4.15;1.15;;;15.60;99.90;;;;;;7340208;19;108783;-88
2022/09/16 00:03:12;;;;;;;4.65;1.23;;;15.60;99.90;;;;;;7338501;19;109476;-87
2022/09/16 00:05:44;;;;;;;6.78;1.30;;;15.50;99.90;;;;;;7339400;19;109851;-87
2022/09/16 00:08:13;;;;;;;3.72;1.30;;;15.50;99.90;;;;;;7340486;19;109348;-88
2022/09/16 00:10:40;;;;;;;7.35;1.10;;;15.50;99.90;;;;;;7343943;19;109927;-87
2022/09/16 00:13:07;;;;;;;;;;;15.50;99.90;;;;;;7339343;19;108776;-89
2022/09/16 00:15:34;;;;;;;5.68;1.35;;;15.40;99.90;;;;;;7340691;19;109662;-88
2022/09/16 00:18:01;;;;;;;9.70;1.45;;;15.40;99.90;;;;;;7339807;19;110745;-87
2022/09/16 00:20:28;;;;;;;6.32;1.60;;;15.40;99.90;;;;;;7337706;19;110994;-88
2022/09/16 00:22:55;;;;;;;7.85;1.10;;;15.40;99.90;;;;;;7336428;19;112057;-87
2022/09/16 00:25:22;;;;;;;;;;;15.30;99.90;;;;;;7336714;19;110120;-86
2022/09/16 00:27:48;;;;;;;6.90;1.33;;;15.30;99.90;;;;;;7338203;19;108379;-87
2022/09/16 00:30:16;;;;;;;4.43;1.25;;;15.30;99.90;;;;;;7336105;19;109447;-86
2022/09/16 00:32:43;;;;;;;7.40;1.05;;;15.30;99.90;;;;;;7342661;19;110393;-87
2022/09/16 00:35:10;;;;;;;5.75;1.30;;;15.20;99.90;;;;;;7336957;19;108442;-88
2022/09/16 00:37:38;;;;;;;7.38;1.48;;;15.20;99.90;;;;;;7337733;19;110508;-87
2022/09/16 00:40:05;;;;;;;5.25;1.25;;;15.20;99.90;;;;;;7335586;19;108821;-87
2022/09/16 00:42:39;;;;;;;4.32;1.00;;;15.10;99.90;;;;;;7334721;19;112263;-87
2022/09/16 00:45:21;;;;;;;7.68;1.17;;;15.10;99.90;;;;;;7335578;19;110441;-87
2022/09/16 00:47:56;;;;;;;3.38;1.00;;;15.10;99.90;;;;;;7333969;19;108938;-88
2022/09/16 00:50:37;;;;;;;7.80;1.00;;;15.00;99.90;;;;;;7337823;19;109487;-85
2022/09/16 00:53:22;;;;;;;3.85;1.35;;;15.00;99.90;;;;;;7336166;19;110321;-86
2022/09/16 00:55:52;;;;;;;5.70;1.10;;;14.90;99.90;;;;;;7340718;19;108303;-86
2022/09/16 00:58:44;;;;;;;5.88;1.00;;;14.90;99.90;;;;;;7333371;19;110760;-87
2022/09/16 01:01:12;;;;;;;5.88;1.38;;;14.90;99.90;;;;;;7335321;19;109102;-87
2022/09/16 01:03:53;;;;;;;6.78;1.20;;;14.80;99.90;;;;;;7333316;19;109038;-87
2022/09/16 01:06:21;;;;;;;5.05;1.20;;;14.70;99.90;;;;;;7335893;19;108884;-87
2022/09/16 01:08:49;;;;;;;6.47;1.25;;;14.70;99.90;;;;;;7335921;19;110424;-87
2022/09/16 01:11:17;;;;;;;5.18;1.25;;;14.70;99.90;;;;;;7336175;19;109315;-87
2022/09/16 01:13:46;;;;;;;7.15;1.02;;;14.70;99.90;;;;;;7339213;19;110484;-87
2022/09/16 01:16:29;;;;;;;4.55;0.90;;;14.70;99.90;;;;;;7336280;19;108910;-87
2022/09/16 01:18:59;;;;;;;4.95;1.08;;;14.60;99.90;;;;;;7342560;19;112159;-87
2022/09/16 01:21:52;;;;;;;6.28;1.48;;;14.60;99.90;;;;;;7335805;19;110281;-88
2022/09/16 01:24:45;;;;;;;5.28;0.93;;;14.50;99.90;;;;;;7335152;19;109705;-87
2022/09/16 01:27:19;;;;;;;4.72;0.90;;;14.50;99.90;;;;;;7336131;19;113432;-86
2022/09/16 01:30:01;;;;;;;5.18;1.08;;;14.50;99.90;;;;;;7333921;19;108576;-87
2022/09/16 01:32:46;;;;;;;5.90;0.80;;;14.40;99.90;;;;;;7336122;19;110111;-87
2022/09/16 01:35:47;;;;;;;4.15;0.93;;;14.40;99.90;;;;;;7333637;19;110376;-88
2022/09/16 01:38:22;;;;;;;3.22;1.10;;;14.40;99.90;;;;;;7332107;19;109464;-86
2022/09/16 01:41:14;;;;;;;9.20;1.00;;;14.30;99.90;;;;;;7333476;19;109901;-86
2022/09/16 01:43:58;;;;;;;4.32;0.80;;;14.30;99.90;;;;;;7339592;19;113376;-87
2022/09/16 01:46:41;;;;;;;2.85;0.80;;;14.20;99.90;;;;;;7333578;19;111524;-87
2022/09/16 01:49:19;;;;;;;5.95;1.20;;;14.20;99.90;;;;;;7334725;19;110512;-87
2022/09/16 01:52:01;;;;;;;6.05;1.00;;;14.20;99.90;;;;;;7331504;19;110315;-86
2022/09/16 01:54:39;;;;;;;4.55;1.00;;;14.20;99.90;;;;;;7331284;19;112967;-87
2022/09/16 01:57:12;;;;;;;3.67;1.05;;;14.20;99.90;;;;;;7334242;19;110762;-87
2022/09/16 01:59:56;;;;;;;7.72;0.80;;;14.10;99.90;;;;;;7339626;19;108861;-87
2022/09/16 02:02:30;;;;;;;4.80;1.10;;;14.10;99.90;;;;;;7338629;19;110319;-86
2022/09/16 02:05:01;;;;;;;6.72;1.10;;;14.10;99.90;;;;;;7342264;19;109114;-87
2022/09/16 02:07:34;;;;;;;6.28;1.08;;;14.10;99.90;;;;;;7343664;19;108829;-86
2022/09/16 02:10:28;;;;;;;6.38;1.00;;;14.10;99.90;;;;;;7341765;19;110215;-87
2022/09/16 02:13:04;;;;;;;9.40;1.00;;;14.00;99.90;;;;;;7340907;19;108605;-87
2022/09/16 02:15:33;;;;;;;8.90;1.20;;;14.00;99.90;;;;;;7338991;19;110772;-86
2022/09/16 02:18:07;;;;;;;4.78;1.05;;;14.00;99.90;;;;;;7338147;19;109602;-87
2022/09/16 02:20:39;;;;;;;6.72;1.17;;;14.00;99.90;;;;;;7339343;19;110159;-86
2022/09/16 02:23:13;;;;;;;6.10;0.80;;;14.00;99.90;;;;;;7342052;19;109129;-87
2022/09/16 02:25:42;;;;;;;3.65;0.95;;;14.00;99.90;;;;;;7340281;19;110080;-87
2022/09/16 02:28:14;;;;;;;4.28;1.00;;;14.00;99.90;;;;;;7345187;19;109047;-87
2022/09/16 02:30:46;;;;;;;4.10;0.90;;;13.90;99.90;;;;;;7340913;19;110688;-87
2022/09/16 02:33:15;;;;;;;4.60;0.80;;;13.90;99.90;;;;;;7339182;19;110982;-86
2022/09/16 02:35:47;;;;;;;4.90;0.90;;;13.90;99.90;;;;;;7341483;19;109425;-86
2022/09/16 02:38:21;;;;;;;4.63;0.90;;;13.90;99.90;;;;;;7340930;19;109793;-86
2022/09/16 02:40:53;;;;;;;4.47;0.80;;;13.90;99.90;;;;;;7340154;19;109433;-86
2022/09/16 02:43:21;;;;;;;4.93;1.08;;;13.90;99.90;;;;;;7338765;19;112607;-87
2022/09/16 02:46:19;;;;;;;5.20;0.90;;;13.90;99.90;;;;;;7339514;19;110126;-87
2022/09/16 02:49:20;;;;;;;4.63;0.97;;;13.90;99.90;;;;;;7339069;19;108399;-86
2022/09/16 02:52:21;;;;;;;3.88;1.13;;;13.90;99.90;;;;;;7343526;19;110545;-87
2022/09/16 02:55:04;;;;;;;2.88;0.90;;;13.80;99.90;;;;;;7341352;19;109166;-86
2022/09/16 02:57:31;;;;;;;4.85;0.93;;;13.90;99.90;;;;;;7338273;19;110887;-87
2022/09/16 02:59:59;;;;;;;6.28;1.10;;;13.80;99.90;;;;;;7339181;19;109696;-87
2022/09/16 03:02:26;;;;;;;3.35;0.90;;;13.90;99.90;;;;;;7339452;19;109113;-86
2022/09/16 03:04:53;;;;;;;5.53;1.00;;;13.90;99.90;;;;;;7339711;19;109400;-87
2022/09/16 03:07:20;;;;;;;;;;;13.90;99.90;;;;;;7338957;19;110337;-86
2022/09/16 03:09:48;;;;;;;3.75;0.98;;;13.90;99.90;;;;;;7341265;19;108413;-87
2022/09/16 03:12:27;;;;;;;5.45;1.10;;;13.90;99.90;;;;;;7337986;19;108796;-87
2022/09/16 03:15:10;;;;;;;4.30;0.93;;;13.90;99.90;;;;;;7340964;19;111816;-86
2022/09/16 03:17:58;;;;;;;9.68;0.95;;;13.90;99.90;;;;;;7340638;19;109343;-87
2022/09/16 03:20:33;;;;;;;7.38;1.33;;;14.00;99.90;;;;;;7336284;19;112719;-87
2022/09/16 03:23:28;;;;;;;3.90;0.75;;;14.00;99.90;;;;;;7338181;19;108207;-86
2022/09/16 03:26:30;;;;;;;6.93;1.35;;;14.00;99.90;;;;;;7340300;19;112591;-87
2022/09/16 03:29:11;;;;;;;5.68;1.00;;;14.10;99.90;;;;;;7334247;19;110455;-86
2022/09/16 03:31:44;;;;;;;4.65;1.10;;;14.00;99.90;;;;;;7334198;19;111230;-86
2022/09/16 03:34:36;;;;;;;9.27;0.90;;;14.00;99.90;;;;;;7332891;19;109520;-87
2022/09/16 03:37:08;;;;;;;4.95;0.93;;;14.10;99.90;;;;;;7335562;19;112918;-86
2022/09/16 03:39:36;;;;;;;5.38;1.00;;;14.10;99.90;;;;;;7338855;19;108893;-86
2022/09/16 03:42:06;;;;;;;6.75;1.17;;;14.10;99.90;;;;;;7332815;19;110807;-87
2022/09/16 03:44:35;;;;;;;4.35;0.93;;;14.00;99.90;;;;;;7336008;19;108458;-86
2022/09/16 03:47:03;;;;;;;5.47;1.00;;;14.10;99.90;;;;;;7334321;19;109712;-87
2022/09/16 03:49:30;;;;;;;5.75;0.80;;;14.10;99.90;;;;;;7333233;19;109896;-87
2022/09/16 03:51:58;;;;;;;4.40;0.80;;;14.10;99.90;;;;;;7336051;19;108890;-86
2022/09/16 03:54:26;;;;;;;3.58;0.75;;;14.10;99.90;;;;;;7334012;19;112611;-87
2022/09/16 03:56:53;;;;;;;4.40;0.90;;;14.10;99.90;;;;;;7334199;19;110648;-86
2022/09/16 03:59:20;;;;;;;8.52;0.90;;;14.10;99.90;;;;;;7333537;19;108687;-87
2022/09/16 04:01:48;;;;;;;4.55;0.82;;;14.20;99.90;;;;;;7338373;19;109432;-87
2022/09/16 04:04:15;;;;;;;3.97;0.90;;;14.20;99.90;;;;;;7333366;19;111562;-87
2022/09/16 04:06:43;;;;;;;6.38;0.80;;;14.20;99.90;;;;;;7339294;19;111149;-87
2022/09/16 04:09:11;;;;;;;4.25;0.90;;;14.20;99.90;;;;;;7334051;19;112528;-87
2022/09/16 04:11:39;;;;;;;4.85;0.93;;;14.20;99.90;;;;;;7333417;19;112685;-87
2022/09/16 04:14:07;;;;;;;5.47;0.88;;;14.20;99.90;;;;;;7337428;19;109397;-86
2022/09/16 04:16:34;;;;;;;5.40;0.90;;;14.20;99.90;;;;;;7336182;19;109972;-86
2022/09/16 04:19:01;;;;;;;8.15;0.82;;;14.20;99.90;;;;;;7336431;19;108698;-87
2022/09/16 04:21:28;;;;;;;5.38;1.05;;;14.20;99.90;;;;;;7340211;19;110966;-87
2022/09/16 04:23:55;;;;;;;5.25;0.90;;;14.20;99.90;;;;;;7337294;19;108489;-86
2022/09/16 04:26:22;;;;;;;;;;;14.30;99.90;;;;;;7338938;19;109123;-86
2022/09/16 04:28:53;;;;;;;4.85;0.98;;;14.20;99.90;;;;;;7342008;19;109933;-87
2022/09/16 04:31:20;;;;;;;8.40;1.05;;;14.20;99.90;;;;;;7338841;19;108800;-87
2022/09/16 04:33:48;;;;;;;3.28;1.02;;;14.30;99.90;;;;;;7336802;19;109765;-87
2022/09/16 04:36:18;;;;;;;7.60;0.80;;;14.30;99.90;;;;;;7334428;19;109312;-87
2022/09/16 04:38:46;;;;;;;6.90;0.93;;;14.40;99.90;;;;;;7336672;19;108538;-88
2022/09/16 04:41:15;;;;;;;4.75;0.90;;;14.40;99.90;;;;;;7337452;19;109124;-87
2022/09/16 04:43:42;;;;;;;5.50;0.90;;;14.30;99.90;;;;;;7341225;19;110588;-88
2022/09/16 04:46:09;;;;;;;4.90;1.02;;;14.30;99.90;;;;;;7338341;19;109149;-87
2022/09/16 04:48:37;;;;;;;4.10;0.88;;;14.30;99.90;;;;;;7335944;19;109430;-85
2022/09/16 04:51:09;;;;;;;5.65;0.98;;;14.30;99.90;;;;;;7332708;19;109540;-88
2022/09/16 04:53:38;;;;;;;5.53;0.80;;;14.40;99.90;;;;;;7335643;19;109238;-86
2022/09/16 04:56:14;;;;;;;4.25;0.88;;;14.40;99.90;;;;;;7334284;19;110555;-87
2022/09/16 04:58:43;;;;;;;4.97;0.80;;;14.30;99.90;;;;;;7336051;19;108463;-87
2022/09/16 05:01:13;;;;;;;4.65;0.82;;;14.30;99.90;;;;;;7333659;19;109859;-87
2022/09/16 05:03:42;;;;;;;6.15;0.90;;;14.30;99.90;;;;;;7338430;19;110376;-87
2022/09/16 05:06:12;;;;;;;5.65;0.82;;;14.30;99.90;;;;;;7339358;19;108456;-87
2022/09/16 05:08:46;;;;;;;2.95;0.70;;;14.30;99.90;;;;;;7337177;19;110673;-87
2022/09/16 05:11:26;;;;;;;6.15;1.10;;;14.30;99.90;;;;;;7335527;19;108801;-87
2022/09/16 05:13:54;;;;;;;3.17;1.02;;;14.30;99.90;;;;;;7337176;19;108875;-87
2022/09/16 05:16:22;;;;;;;3.83;1.00;;;14.30;99.90;;;;;;7333446;19;110273;-87
2022/09/16 05:18:53;;;;;;;4.05;0.95;;;14.30;99.90;;;;;;7337465;19;108756;-86
2022/09/16 05:21:22;;;;;;;6.05;0.70;;;14.20;99.90;;;;;;7336139;19;109227;-87
2022/09/16 05:23:51;;;;;;;6.25;0.93;;;14.20;99.90;;;;;;7333190;19;111359;-87
2022/09/16 05:26:24;;;;;;;5.53;0.93;;;14.20;99.90;;;;;;7334714;19;108409;-87
2022/09/16 05:28:52;;;;;;;8.25;1.00;;;14.20;99.90;;;;;;7338133;19;110217;-86
2022/09/16 05:31:20;;;;;;;5.18;1.08;;;14.20;99.90;;;;;;7335039;19;109035;-87
2022/09/16 05:33:59;;;;;;;6.22;1.00;;;14.20;99.90;;;;;;7334466;19;111337;-87
2022/09/16 05:36:28;;;;;;;7.55;0.90;;;14.20;99.90;;;;;;7336362;19;110253;-86
2022/09/16 05:38:55;;;;;;;5.20;1.00;;;14.20;99.90;;;;;;7336034;19;108835;-87
2022/09/16 05:41:43;;;;;;;3.42;0.60;;;14.20;99.90;;;;;;7334004;19;110318;-87
2022/09/16 05:44:11;;;;;;;4.00;0.52;;;14.20;99.90;;;;;;7335587;19;113548;-87
2022/09/16 05:46:40;;;;;;;3.78;0.60;;;14.20;99.90;;;;;;7334293;19;108609;-88
2022/09/16 05:49:08;;;;;;;2.55;0.57;;;14.20;99.90;;;;;;7333434;19;108926;-87
2022/09/16 05:51:37;;;;;;;4.20;0.70;;;14.20;99.90;;;;;;7340282;19;109665;-87
2022/09/16 05:54:04;;;;;;;2.47;0.68;;;14.20;99.90;;;;;;7331510;19;109134;-87
2022/09/16 05:56:32;;;;;;;4.10;0.60;;;14.20;99.90;;;;;;7336251;19;111001;-88
2022/09/16 05:59:00;;;;;;;4.15;0.80;;;14.30;99.90;;;;;;7336322;19;108475;-87
2022/09/16 06:01:32;;;;;;;3.65;0.70;;;14.30;99.90;;;;;;7332837;19;109742;-87
2022/09/16 06:04:01;;;;;;;4.80;0.88;;;14.30;99.90;;;;;;7369896;19;109970;-88
2022/09/16 06:06:33;;;;;;;3.70;0.50;;;14.30;99.90;;;;;;7371555;19;107846;-88
2022/09/16 06:09:10;;;;;;;3.35;0.60;;;14.30;99.90;;;;;;7371202;19;110391;-88
2022/09/16 06:11:39;;;;;;;3.97;0.80;;;14.30;99.90;;;;;;7372615;19;109100;-88
2022/09/16 06:14:07;;;;;;;6.80;0.95;;;14.30;99.90;;;;;;7377935;19;108714;-87
2022/09/16 06:16:35;;;;;;;4.32;0.88;;;14.40;99.90;;;;;;7372439;19;109109;-88
2022/09/16 06:19:05;;;;;;;3.17;0.70;;;14.40;99.90;;;;;;7370800;19;109297;-87
2022/09/16 06:21:32;;;;;;;5.78;0.80;;;14.50;99.90;;;;;;7371014;19;110696;-87
2022/09/16 06:23:59;;;;;;;2.78;0.60;;;14.50;99.90;;;;;;7369833;19;108964;-90
2022/09/16 06:26:27;;;;;;;6.28;1.00;;;14.50;99.90;;;;;;7366738;19;108118;-89
2022/09/16 06:28:54;;;;;;;5.30;1.00;;;14.40;99.90;;;;;;7370877;19;108115;-90
2022/09/16 06:31:24;;;;;;;5.28;0.70;;;14.40;99.90;;;;;;7368051;19;112548;-91
2022/09/16 06:33:52;;;;;;;4.60;0.88;;;14.50;99.90;;;;;;7376309;19;109709;-89
2022/09/16 06:36:25;;;;;;;4.50;0.95;;;14.50;99.90;;;;;;7359926;19;109065;-86
2022/09/16 06:38:52;;;;;;;4.95;0.93;;;14.50;99.90;;;;;;7334067;19;108691;-88
2022/09/16 06:41:20;;;;;;;3.75;0.73;;;14.60;99.90;;;;;;7335309;19;109811;-89
2022/09/16 06:43:50;;;;;;;6.13;0.88;;;14.60;99.90;;;;;;7336594;19;113675;-89
2022/09/16 06:46:23;;;;;;;4.75;0.90;;;14.60;99.90;;;;;;7339430;19;109920;-92
2022/09/16 06:48:53;;;;;;;3.70;1.00;;;14.60;99.90;;;;;;7343404;19;109388;-90
2022/09/16 06:51:28;;;;;;;6.63;0.80;;;14.60;99.90;;;;;;7343339;19;111184;-91
2022/09/16 06:53:59;;;;;;;5.90;0.95;;;14.60;99.90;;;;;;7342568;19;108750;-89
2022/09/16 06:56:27;;;;;;;4.53;0.90;;;14.60;99.90;;;;;;7349668;19;110131;-90
2022/09/16 06:58:54;;;;;;;6.90;0.95;;;14.70;99.90;;;;;;7343977;19;110667;-91
2022/09/16 07:01:24;;;;;;;9.90;0.98;;;14.70;99.90;;;;;;7345562;19;109390;-91
2022/09/16 07:03:52;;;;;;;9.05;0.77;;;14.70;99.90;;;;;;7344804;19;108976;-92
2022/09/16 07:06:20;;;;;;;8.63;1.10;;;14.70;99.90;;;;;;7345030;19;108724;-92
2022/09/16 07:08:48;;;;;;;2.75;0.60;;;14.70;99.90;;;;;;7345557;19;108546;-92
2022/09/16 07:11:17;;;;;;;3.67;0.50;;;14.70;99.90;;;;;;7344274;19;112277;-90
2022/09/16 07:13:48;;;;;;;7.07;0.80;;;14.70;99.90;;;;;;7344910;19;110389;-91
2022/09/16 07:16:18;;;;;;;6.65;0.60;;;14.60;99.90;;;;;;7344081;19;110889;-91
2022/09/16 07:18:47;;;;;;;2.47;0.82;;;14.60;99.90;;;;;;7349344;19;114361;-90
2022/09/16 07:21:18;;;;;;;5.28;0.80;;;14.60;99.90;;;;;;7346883;19;109510;-90
2022/09/16 07:23:46;;;;;;;7.00;0.80;;;14.60;99.90;;;;;;7343275;19;109802;-92
2022/09/16 07:26:19;;;;;;;8.13;1.35;;;14.60;99.90;;;;;;7344931;19;109069;-90
2022/09/16 07:28:47;;;;;;;3.45;0.80;;;14.70;99.90;;;;;;7342845;19;108594;-91
2022/09/16 07:31:24;;;;;;;4.50;0.63;;;14.70;99.90;;;;;;7344618;19;110280;-90
2022/09/16 07:33:52;;;;;;;4.72;0.70;;;14.70;99.90;;;;;;7344932;19;108901;-91
2022/09/16 07:36:22;;;;;;;5.43;0.82;;;14.70;99.90;;;;;;7344452;19;112196;-92
2022/09/16 07:38:50;;;;;;;3.33;1.25;;;14.70;99.90;;;;;;7344549;19;111410;-93
2022/09/16 07:41:20;;;;;;;4.68;0.80;;;14.70;99.90;;;;;;7349979;19;109756;-92
2022/09/16 07:43:48;;;;;;;6.20;0.70;;;14.70;99.90;;;;;;7348230;19;109907;-92
2022/09/16 07:46:17;;;;;;;3.58;0.90;;;14.70;99.90;;;;;;7345720;19;110768;-95
2022/09/16 07:48:46;;;;;;;4.97;0.80;;;14.80;99.90;;;;;;7346937;19;109473;-95
2022/09/16 07:51:21;;;;;;;4.57;0.90;;;14.80;99.90;;;;;;7346238;19;108489;-92
2022/09/16 07:53:53;;;;;;;4.45;0.80;;;14.80;99.90;;;;;;7343608;19;110501;-91
2022/09/16 07:56:24;;;;;;;3.35;0.80;;;14.90;99.90;;;;;;7339947;19;112044;-90
2022/09/16 07:58:52;;;;;;;5.25;0.80;;;15.00;99.90;;;;;;7339916;19;109512;-91
2022/09/16 08:01:20;;;;;;;3.63;0.80;;;15.00;99.90;;;;;;7337517;19;108313;-91
2022/09/16 08:03:47;;;;;;;4.43;0.90;;;15.10;99.90;;;;;;7343990;19;109453;-91
2022/09/16 08:06:24;;;;;;;5.50;1.05;;;15.20;99.90;;;;;;7346900;19;108181;-93
2022/09/16 08:08:53;;;;;;;6.13;0.80;;;15.20;99.90;;;;;;7348347;19;111120;-91
2022/09/16 08:11:20;;;;;;;7.35;0.68;;;15.20;99.90;;;;;;7341016;19;110334;-89
2022/09/16 08:13:48;;;;;;;5.93;1.20;;;15.30;99.90;;;;;;7339831;19;109344;-90
2022/09/16 08:16:18;;;;;;;3.35;0.90;;;15.30;99.90;;;;;;7339684;19;112015;-90
2022/09/16 08:18:47;;;;;;;6.68;1.50;;;15.20;99.90;;;;;;7341012;19;111361;-91
2022/09/16 08:21:23;;;;;;;5.15;1.20;;;15.20;99.90;;;;;;7340290;19;110992;-89
2022/09/16 08:23:50;;;;;;;3.17;1.10;;;15.30;99.90;;;;;;7342757;19;112392;-88
2022/09/16 08:26:18;;;;;;;4.28;1.20;;;15.30;99.90;;;;;;7344640;19;113284;-89
2022/09/16 08:28:47;;;;;;;5.35;1.17;;;15.30;99.90;;;;;;7338423;19;112521;-88
2022/09/16 08:31:35;;;;;;;7.25;1.02;;;15.30;99.90;;;;;;7337781;19;110046;-90
2022/09/16 08:34:03;;;;;;;4.78;1.00;;;15.30;99.90;;;;;;7341136;19;108900;-89
2022/09/16 08:36:32;;;;;;;5.93;1.10;;;15.30;99.90;;;;;;7339387;19;110409;-88
2022/09/16 08:38:59;;;;;;;10.27;1.55;;;15.40;99.90;;;;;;7339894;19;109682;-90
2022/09/16 08:42:13;;;;;;;7.57;1.30;;;15.40;99.90;;;;;;7337825;19;109059;-90
2022/09/16 08:45:01;;;;;;;11.43;1.67;;;15.40;99.90;;;;;;7333110;19;112854;-90
2022/09/16 08:48:07;;;;;;;9.23;1.50;;;15.40;99.90;;;;;;7336462;19;110798;-92
2022/09/16 08:50:38;;;;;;;6.13;1.27;;;15.40;99.90;;;;;;7333217;19;112504;-91
2022/09/16 08:53:30;;;;;;;6.35;1.30;;;15.40;99.90;;;;;;7332367;19;110584;-90
2022/09/16 08:55:58;;;;;;;4.53;1.20;;;15.50;99.90;;;;;;7333426;19;108752;-90
2022/09/16 09:01:03;;;;;;;2.78;1.02;;;15.50;99.90;;;;;;7324385;19;111236;-78
2022/09/16 09:03:40;;;;;;;3.00;1.00;;;15.50;99.90;;;;;;7334968;19;109672;-79
2022/09/16 09:06:32;;;;;;;2.88;1.10;;;15.70;99.90;;;;;;7329767;19;108949;-78
2022/09/16 09:09:14;;;;;;;3.17;1.20;;;15.90;99.90;;;;;;7322435;19;109703;-77
2022/09/16 09:11:52;;;;;;;4.15;0.93;;;16.00;99.90;;;;;;7325043;19;109200;-77
2022/09/16 09:14:57;;;;;;;4.57;1.20;;;16.10;99.90;;;;;;7329287;19;110225;-81
2022/09/16 09:17:51;;;;;;;6.75;1.42;;;16.10;99.90;;;;;;7331280;19;108752;-79
2022/09/16 09:20:36;;;;;;;9.43;1.50;;;16.10;99.90;;;;;;7335194;19;110276;-79
2022/09/16 09:23:21;;;;;;;6.03;1.17;;;16.00;99.90;;;;;;7332291;19;111300;-84
2022/09/16 09:26:20;;;;;;;13.52;1.60;;;15.90;99.90;;;;;;7326765;19;109449;-81
2022/09/16 09:29:11;;;;;;;8.98;1.65;;;15.80;99.90;;;;;;7331970;19;110418;-80
2022/09/16 09:31:52;;;;;;;10.20;2.00;;;15.80;99.90;;;;;;7332138;19;111336;-81
2022/09/16 09:34:38;;;;;;;5.13;1.60;;;15.80;99.90;;;;;;7334696;19;108828;-80
2022/09/16 09:37:46;;;;;;;12.38;1.35;;;15.80;99.90;;;;;;7335718;19;109584;-80
2022/09/16 09:40:37;;;;;;;6.38;1.20;;;15.90;99.90;;;;;;7332004;19;109024;-78
2022/09/16 09:43:15;;;;;;;7.28;1.13;;;16.00;99.90;;;;;;7331300;19;109429;-80
2022/09/16 09:45:57;;;;;;;4.65;1.13;;;16.00;99.90;;;;;;7331620;19;114300;-79
2022/09/16 09:48:46;;;;;;;5.68;1.40;;;16.10;99.90;;;;;;7334537;19;110154;-79
2022/09/16 09:51:23;;;;;;;5.82;0.98;;;16.20;99.90;;;;;;7334284;19;109827;-78
2022/09/16 09:53:55;;;;;;;5.13;1.30;;;16.30;99.90;;;;;;7334216;19;113263;-79
2022/09/16 09:56:28;;;;;;;6.75;1.27;;;16.30;99.90;;;;;;7330792;19;111418;-79
2022/09/16 09:59:00;;;;;;;7.18;1.17;;;16.50;99.90;;;;;;7330537;19;109367;-79
2022/09/16 10:01:27;;;;;;;6.07;0.93;;;16.60;99.90;;;;;;7338306;19;108989;-79
2022/09/16 10:06:32;;;;;;;5.43;1.00;;;16.70;99.90;;;;;;7331676;19;108526;-79
2022/09/16 10:08:59;;;;;;;5.65;0.70;;;16.80;99.90;;;;;;7331154;19;108933;-78
2022/09/16 10:11:32;;;;;;;2.70;0.57;;;16.90;99.90;;;;;;7329881;19;109522;-79
2022/09/16 10:14:01;;;;;;;3.17;0.43;;;16.90;99.90;;;;;;7333466;19;110454;-79
2022/09/16 10:16:36;;;;;;;3.78;0.80;;;17.00;99.90;;;;;;7336730;19;108403;-78
2022/09/16 10:19:07;;;;;;;2.50;0.60;;;17.10;99.90;;;;;;7335131;19;112842;-80
2022/09/16 10:21:55;;;;;;;1.40;0.38;;;17.20;99.90;;;;;;7338452;19;109435;-79
2022/09/16 10:24:42;;;;;;;3.50;0.63;;;17.10;99.90;;;;;;7343720;19;109307;-79
2022/09/16 10:27:27;;;;;;;3.45;0.50;;;17.00;99.90;;;;;;7338731;19;110193;-81
2022/09/16 10:30:20;;;;;;;2.47;0.47;;;17.00;99.90;;;;;;7343155;19;108399;-79
2022/09/16 10:33:22;;;;;;;2.35;0.40;;;16.90;99.90;;;;;;7338386;19;109710;-79
2022/09/16 10:35:56;;;;;;;3.25;0.50;;;16.70;99.90;;;;;;7341098;19;109951;-79
2022/09/16 10:38:33;;;;;;;2.10;0.30;;;16.70;99.90;;;;;;7338026;19;113942;-79
2022/09/16 10:41:14;;;;;;;3.20;0.37;;;16.70;99.90;;;;;;7340617;19;108773;-80
2022/09/16 10:43:51;;;;;;;1.67;0.47;;;16.70;99.90;;;;;;7339981;19;113677;-82
2022/09/16 10:46:18;;;;;;;3.08;0.50;;;16.60;99.90;;;;;;7338440;19;108605;-78
2022/09/16 10:48:48;;;;;;;2.05;0.57;;;16.60;99.90;;;;;;7345354;19;108528;-81
2022/09/16 10:51:26;;;;;;;7.85;0.60;;;16.60;99.90;;;;;;7340983;19;108831;-81
2022/09/16 10:53:59;;;;;;;6.32;0.82;;;16.70;99.90;;;;;;7341783;19;110130;-83
2022/09/16 10:56:28;;;;;;;2.53;0.50;;;16.70;99.90;;;;;;7338040;19;109106;-82
2022/09/16 10:59:04;;;;;;;4.82;0.70;;;16.90;99.90;;;;;;7339945;19;109339;-80
2022/09/16 11:01:36;;;;;;;7.45;0.70;;;16.80;99.90;;;;;;7339697;19;109555;-81
2022/09/16 11:04:27;;;;;;;3.83;0.50;;;16.90;99.90;;;;;;7340252;19;110181;-81
2022/09/16 11:07:16;;;;;;;3.00;0.50;;;16.80;99.90;;;;;;7338483;19;110080;-80
2022/09/16 11:10:01;;;;;;;6.05;0.70;;;17.00;99.90;;;;;;7343847;19;108764;-78
2022/09/16 11:12:36;;;;;;;1.98;0.57;;;17.00;99.90;;;;;;7337672;19;109847;-84
2022/09/16 11:15:22;;;;;;;3.85;0.73;;;17.10;99.90;;;;;;7336783;19;109024;-85
2022/09/16 11:18:11;;;;;;;4.80;0.75;;;17.20;99.90;;;;;;7337464;19;109582;-85
2022/09/16 11:20:53;;;;;;;3.92;0.60;;;17.40;99.90;;;;;;7339008;19;109971;-84
2022/09/16 11:23:43;;;;;;;4.20;0.57;;;17.40;99.90;;;;;;7339302;19;108794;-83
2022/09/16 11:26:16;;;;;;;3.30;0.40;;;17.50;99.90;;;;;;7338165;19;111540;-83
2022/09/16 11:29:02;;;;;;;2.42;0.40;;;17.20;99.90;;;;;;7338477;19;109386;-81
2022/09/16 11:31:44;;;;;;;4.22;0.70;;;16.90;99.90;;;;;;7337994;19;109407;-80
2022/09/16 11:35:12;;;;;;;1.92;0.30;;;16.80;99.90;;;;;;7341287;19;109703;-81
2022/09/16 11:38:03;;;;;;;5.95;0.60;;;16.70;99.90;;;;;;7335704;19;110637;-78
2022/09/16 11:40:47;;;;;;;1.73;0.40;;;16.70;99.90;;;;;;7334103;19;109331;-80
2022/09/16 11:43:41;;;;;;;2.10;0.40;;;16.60;99.90;;;;;;7334649;19;109837;-80
2022/09/16 11:46:41;;;;;;;4.20;0.50;;;16.50;99.90;;;;;;7332492;19;108645;-82
2022/09/16 11:49:34;;;;;;;3.15;0.57;;;16.50;99.90;;;;;;7334235;19;109087;-81
2022/09/16 11:52:34;;;;;;;3.15;0.50;;;16.60;99.90;;;;;;7333409;19;109216;-77
2022/09/16 11:55:34;;;;;;;1.52;0.45;;;16.60;99.90;;;;;;7332058;19;108466;-75
2022/09/16 11:58:24;;;;;;;4.35;0.57;;;16.70;99.90;;;;;;7335255;19;110501;-74
2022/09/16 12:00:55;;;;;;;4.00;0.40;;;16.70;99.90;;;;;;7339827;19;108272;-74
2022/09/16 12:03:54;;;;;;;1.88;0.60;;;16.90;99.90;;;;;;7333217;19;110267;-74
2022/09/16 12:06:25;;;;;;;1.63;0.30;;;17.10;99.90;;;;;;7331865;19;108937;-74
2022/09/16 12:09:06;;;;;;;2.15;0.40;;;17.30;99.90;;;;;;7339534;19;109449;-74
2022/09/16 12:11:45;;;;;;;2.22;0.40;;;17.40;99.90;;;;;;7338963;19;109221;-74
2022/09/16 12:14:18;;;;;;;2.53;0.57;;;17.40;99.90;;;;;;7338094;19;108686;-75
2022/09/16 12:16:47;;;;;;;2.85;0.60;;;17.40;99.90;;;;;;7337457;19;109530;-74
2022/09/16 12:19:29;;;;;;;2.65;0.60;;;17.30;99.90;;;;;;7336204;19;110348;-74
2022/09/16 12:22:28;;;;;;;4.63;0.50;;;17.40;99.90;;;;;;7337520;19;108823;-74
2022/09/16 12:24:59;;;;;;;2.70;0.50;;;17.50;99.90;;;;;;7341641;19;109841;-74
2022/09/16 12:27:39;;;;;;;2.00;0.40;;;17.30;99.90;;;;;;7338449;19;109428;-74
2022/09/16 12:30:29;;;;;;;5.75;0.50;;;17.40;99.90;;;;;;7336115;19;109562;-74
2022/09/16 12:33:01;;;;;;;2.78;0.45;;;17.70;99.90;;;;;;7334281;19;109547;-74
2022/09/16 12:35:33;;;;;;;2.58;0.50;;;17.80;99.90;;;;;;7337397;19;108341;-75
2022/09/16 12:38:01;;;;;;;4.75;0.50;;;17.70;99.90;;;;;;7336755;19;108486;-74
2022/09/16 12:40:32;;;;;;;1.65;0.47;;;17.90;99.90;;;;;;7338616;19;109396;-74
2022/09/16 12:43:18;;;;;;;2.67;0.40;;;18.00;99.90;;;;;;7338457;19;109376;-75
2022/09/16 12:46:03;;;;;;;2.83;0.52;;;18.40;99.90;;;;;;7337684;19;109440;-75
2022/09/16 12:48:40;;;;;;;4.38;0.57;;;18.50;99.90;;;;;;7342389;19;110190;-74
2022/09/16 12:51:15;;;;;;;1.35;0.30;;;18.30;99.90;;;;;;7337897;19;109654;-75
2022/09/16 12:54:19;;;;;;;2.10;0.50;;;18.40;99.90;;;;;;7337319;19;110414;-75
2022/09/16 12:57:27;;;;;;;2.22;0.50;;;18.40;99.90;;;;;;7337606;19;108511;-74
2022/09/16 13:00:18;;;;;;;3.75;0.68;;;18.30;99.90;;;;;;7337056;19;109532;-74
2022/09/16 13:02:53;;;;;;;1.45;0.40;;;18.30;99.90;;;;;;7336765;19;109242;-74
2022/09/16 13:05:26;;;;;;;3.55;0.70;;;18.40;99.90;;;;;;7333921;19;109354;-75
2022/09/16 13:08:26;;;;;;;3.50;0.50;;;18.60;99.90;;;;;;7337218;19;111549;-76
2022/09/16 13:11:05;;;;;;;2.70;0.60;;;18.70;99.90;;;;;;7338227;19;110427;-74
2022/09/16 13:13:54;;;;;;;2.70;0.40;;;18.80;99.90;;;;;;7340366;19;108331;-74
2022/09/16 13:16:32;;;;;;;3.00;0.43;;;19.00;99.90;;;;;;7336154;19;110242;-74
2022/09/16 13:19:17;;;;;;;;;;;19.20;99.90;;;;;;7335687;19;109270;-74
2022/09/16 13:21:45;;;;;;;1.83;0.40;;;19.10;99.90;;;;;;7340134;19;110793;-74
2022/09/16 13:24:35;;;;;;;4.28;0.50;;;19.00;99.90;;;;;;7336233;19;109765;-75
2022/09/16 13:27:29;;;;;;;1.85;0.30;;;19.10;99.90;;;;;;7336876;19;109450;-75